sensor_id;sensor_type;location;lat;lon;timestamp;temperature;humidity
3492;DHT22;1760;52.480;13.422;2022-09-14T00:02:01;15.90;99.90
3492;DHT22;1760;52.480;13.422;2022-09-14T00:04:28;15.80;99.90
3492;DHT22;1760;52.480;13.422;2022-09-14T00:06:54;15.80;99.90
3492;DHT22;1760;52.480;13.422;2022-09-14T00:09:23;15.80;99.90
3492;DHT22;1760;52.480;13.422;2022-09-14T00:11:53;15.70;99.90
3492;DHT22;1760;52.480;13.422;2022-09-14T00:14:21;15.70;99.90
3492;DHT22;1760;52.480;13.422;2022-09-14T00:16:50;15.70;99.90
3492;DHT22;1760;52.480;13.422;2022-09-14T00:19:18;15.60;99.90
3492;DHT22;1760;52.480;13.422;2022-09-14T00:21:50;15.60;99.90
3492;DHT22;1760;52.480;13.422;2022-09-14T00:24:17;15.60;99.90
3492;DHT22;1760;52.480;13.422;2022-09-14T00:26:45;15.60;99.90
3492;DHT22;1760;52.480;13.422;2022-09-14T00:29:12;15.60;99.90
3492;DHT22;1760;52.480;13.422;2022-09-14T00:31:39;15.50;99.90
3492;DHT22;1760;52.480;13.422;2022-09-14T00:34:14;15.50;99.90
3492;DHT22;1760;52.480;13.422;2022-09-14T00:36:44;15.40;99.90
3492;DHT22;1760;52.480;13.422;2022-09-14T00:39:12;15.40;99.90
3492;DHT22;1760;52.480;13.422;2022-09-14T00:41:42;15.40;99.90
3492;DHT22;1760;52.480;13.422;2022-09-14T00:47:11;15.30;99.90
3492;DHT22;1760;52.480;13.422;2022-09-14T00:49:40;15.30;99.90
3492;DHT22;1760;52.480;13.422;2022-09-14T00:52:12;15.20;99.90
3492;DHT22;1760;52.480;13.422;2022-09-14T00:54:43;15.20;99.90
3492;DHT22;1760;52.480;13.422;2022-09-14T00:57:11;15.20;99.90
3492;DHT22;1760;52.480;13.422;2022-09-14T00:59:40;15.20;99.90
3492;DHT22;1760;52.480;13.422;2022-09-14T01:02:10;15.20;99.90
3492;DHT22;1760;52.480;13.422;2022-09-14T01:04:39;15.10;99.90
3492;DHT22;1760;52.480;13.422;2022-09-14T01:07:14;15.10;99.90
3492;DHT22;1760;52.480;13.422;2022-09-14T01:09:50;15.10;99.90
3492;DHT22;1760;52.480;13.422;2022-09-14T01:12:24;15.00;99.90
3492;DHT22;1760;52.480;13.422;2022-09-14T01:15:01;15.00;99.90
3492;DHT22;1760;52.480;13.422;2022-09-14T01:17:42;15.00;99.90
3492;DHT22;1760;52.480;13.422;2022-09-14T01:20:18;15.00;99.90
3492;DHT22;1760;52.480;13.422;2022-09-14T01:22:50;14.90;99.90
3492;DHT22;1760;52.480;13.422;2022-09-14T01:25:32;14.90;99.90
3492;DHT22;1760;52.480;13.422;2022-09-14T01:28:04;14.90;99.90
3492;DHT22;1760;52.480;13.422;2022-09-14T01:30:39;14.90;99.90
3492;DHT22;1760;52.480;13.422;2022-09-14T01:33:12;14.90;99.90
3492;DHT22;1760;52.480;13.422;2022-09-14T01:35:43;14.80;99.90
3492;DHT22;1760;52.480;13.422;2022-09-14T01:38:16;14.80;99.90
3492;DHT22;1760;52.480;13.422;2022-09-14T01:40:46;14.80;99.90
3492;DHT22;1760;52.480;13.422;2022-09-14T01:43:19;14.80;99.90
3492;DHT22;1760;52.480;13.422;2022-09-14T01:45:49;14.70;99.90
3492;DHT22;1760;52.480;13.422;2022-09-14T01:48:20;14.70;99.90
3492;DHT22;1760;52.480;13.422;2022-09-14T01:50:50;14.70;99.90
3492;DHT22;1760;52.480;13.422;2022-09-14T01:53:22;14.70;99.90
3492;DHT22;1760;52.480;13.422;2022-09-14T01:55:53;14.70;99.90
3492;DHT22;1760;52.480;13.422;2022-09-14T01:58:27;14.70;99.90
3492;DHT22;1760;52.480;13.422;2022-09-14T02:00:57;14.70;99.90
3492;DHT22;1760;52.480;13.422;2022-09-14T02:03:30;14.60;99.90
3492;DHT22;1760;52.480;13.422;2022-09-14T02:06:01;14.60;99.90
3492;DHT22;1760;52.480;13.422;2022-09-14T02:08:31;14.60;99.90
3492;DHT22;1760;52.480;13.422;2022-09-14T02:10:59;14.50;99.90
3492;DHT22;1760;52.480;13.422;2022-09-14T02:13:28;14.50;99.90
3492;DHT22;1760;52.480;13.422;2022-09-14T02:15:55;14.40;99.90
3492;DHT22;1760;52.480;13.422;2022-09-14T02:18:22;14.40;99.90
3492;DHT22;1760;52.480;13.422;2022-09-14T02:20:51;14.40;99.90
3492;DHT22;1760;52.480;13.422;2022-09-14T02:23:20;14.30;99.90
3492;DHT22;1760;52.480;13.422;2022-09-14T02:25:47;14.30;99.90
3492;DHT22;1760;52.480;13.422;2022-09-14T02:28:17;14.20;99.90
3492;DHT22;1760;52.480;13.422;2022-09-14T02:30:57;14.20;99.90
3492;DHT22;1760;52.480;13.422;2022-09-14T02:33:34;14.20;99.90
3492;DHT22;1760;52.480;13.422;2022-09-14T02:36:06;14.20;99.90
3492;DHT22;1760;52.480;13.422;2022-09-14T02:38:41;14.20;99.90
3492;DHT22;1760;52.480;13.422;2022-09-14T02:41:17;14.20;99.90
3492;DHT22;1760;52.480;13.422;2022-09-14T02:43:49;14.10;99.90
3492;DHT22;1760;52.480;13.422;2022-09-14T02:46:25;14.10;99.90
3492;DHT22;1760;52.480;13.422;2022-09-14T02:49:00;14.10;99.90
3492;DHT22;1760;52.480;13.422;2022-09-14T02:51:32;14.10;99.90
3492;DHT22;1760;52.480;13.422;2022-09-14T02:54:03;14.10;99.90
3492;DHT22;1760;52.480;13.422;2022-09-14T02:56:33;14.10;99.90
3492;DHT22;1760;52.480;13.422;2022-09-14T02:59:01;14.10;99.90
3492;DHT22;1760;52.480;13.422;2022-09-14T03:01:29;14.10;99.90
3492;DHT22;1760;52.480;13.422;2022-09-14T03:04:00;14.10;99.90
3492;DHT22;1760;52.480;13.422;2022-09-14T03:06:27;14.00;99.90
3492;DHT22;1760;52.480;13.422;2022-09-14T03:08:53;14.10;99.90
3492;DHT22;1760;52.480;13.422;2022-09-14T03:11:20;14.10;99.90
3492;DHT22;1760;52.480;13.422;2022-09-14T03:13:51;14.10;99.90
3492;DHT22;1760;52.480;13.422;2022-09-14T03:16:18;14.10;99.90
3492;DHT22;1760;52.480;13.422;2022-09-14T03:18:46;14.00;99.90
3492;DHT22;1760;52.480;13.422;2022-09-14T03:21:15;14.00;99.90
3492;DHT22;1760;52.480;13.422;2022-09-14T03:23:45;14.00;99.90
3492;DHT22;1760;52.480;13.422;2022-09-14T03:26:14;14.00;99.90
3492;DHT22;1760;52.480;13.422;2022-09-14T03:28:41;14.10;99.90
3492;DHT22;1760;52.480;13.422;2022-09-14T03:31:12;14.10;99.90
3492;DHT22;1760;52.480;13.422;2022-09-14T03:33:39;14.10;99.90
3492;DHT22;1760;52.480;13.422;2022-09-14T03:36:12;14.10;99.90
3492;DHT22;1760;52.480;13.422;2022-09-14T03:38:42;14.00;99.90
3492;DHT22;1760;52.480;13.422;2022-09-14T03:41:10;14.00;99.90
3492;DHT22;1760;52.480;13.422;2022-09-14T03:43:37;14.00;99.90
3492;DHT22;1760;52.480;13.422;2022-09-14T03:46:05;14.00;99.90
3492;DHT22;1760;52.480;13.422;2022-09-14T03:48:32;14.00;99.90
3492;DHT22;1760;52.480;13.422;2022-09-14T03:50:59;14.10;99.90
3492;DHT22;1760;52.480;13.422;2022-09-14T03:53:28;14.10;99.90
3492;DHT22;1760;52.480;13.422;2022-09-14T03:55:55;14.00;99.90
3492;DHT22;1760;52.480;13.422;2022-09-14T03:58:22;14.00;99.90
3492;DHT22;1760;52.480;13.422;2022-09-14T04:00:49;14.00;99.90
3492;DHT22;1760;52.480;13.422;2022-09-14T04:03:16;14.00;99.90
3492;DHT22;1760;52.480;13.422;2022-09-14T04:05:53;13.90;99.90
3492;DHT22;1760;52.480;13.422;2022-09-14T04:08:21;13.90;99.90
3492;DHT22;1760;52.480;13.422;2022-09-14T04:10:49;13.90;99.90
3492;DHT22;1760;52.480;13.422;2022-09-14T04:13:16;13.90;99.90
3492;DHT22;1760;52.480;13.422;2022-09-14T04:15:42;13.90;99.90
3492;DHT22;1760;52.480;13.422;2022-09-14T04:18:09;13.90;99.90
3492;DHT22;1760;52.480;13.422;2022-09-14T04:20:36;13.80;99.90
3492;DHT22;1760;52.480;13.422;2022-09-14T04:23:03;13.80;99.90
3492;DHT22;1760;52.480;13.422;2022-09-14T04:25:30;13.80;99.90
3492;DHT22;1760;52.480;13.422;2022-09-14T04:27:58;13.70;99.90
3492;DHT22;1760;52.480;13.422;2022-09-14T04:30:25;13.70;99.90
3492;DHT22;1760;52.480;13.422;2022-09-14T04:32:53;13.70;99.90
3492;DHT22;1760;52.480;13.422;2022-09-14T04:35:20;13.70;99.90
3492;DHT22;1760;52.480;13.422;2022-09-14T04:37:46;13.70;99.90
3492;DHT22;1760;52.480;13.422;2022-09-14T04:40:13;13.70;99.90
3492;DHT22;1760;52.480;13.422;2022-09-14T04:42:40;13.70;99.90
3492;DHT22;1760;52.480;13.422;2022-09-14T04:45:09;13.80;99.90
3492;DHT22;1760;52.480;13.422;2022-09-14T04:47:37;13.80;99.90
3492;DHT22;1760;52.480;13.422;2022-09-14T04:50:04;13.80;99.90
3492;DHT22;1760;52.480;13.422;2022-09-14T04:52:31;13.80;99.90
3492;DHT22;1760;52.480;13.422;2022-09-14T04:54:58;13.80;99.90
3492;DHT22;1760;52.480;13.422;2022-09-14T04:57:24;13.80;99.90
3492;DHT22;1760;52.480;13.422;2022-09-14T04:59:52;13.80;99.90
3492;DHT22;1760;52.480;13.422;2022-09-14T05:02:20;13.90;99.90
3492;DHT22;1760;52.480;13.422;2022-09-14T05:04:47;13.90;99.90
3492;DHT22;1760;52.480;13.422;2022-09-14T05:07:13;13.90;99.90
3492;DHT22;1760;52.480;13.422;2022-09-14T05:09:40;14.00;99.90
3492;DHT22;1760;52.480;13.422;2022-09-14T05:12:07;14.00;99.90
3492;DHT22;1760;52.480;13.422;2022-09-14T05:14:34;14.00;99.90
3492;DHT22;1760;52.480;13.422;2022-09-14T05:17:01;14.10;99.90
3492;DHT22;1760;52.480;13.422;2022-09-14T05:19:30;14.10;99.90
3492;DHT22;1760;52.480;13.422;2022-09-14T05:21:57;14.10;99.90
3492;DHT22;1760;52.480;13.422;2022-09-14T05:24:23;14.20;99.90
3492;DHT22;1760;52.480;13.422;2022-09-14T05:26:51;14.20;99.90
3492;DHT22;1760;52.480;13.422;2022-09-14T05:29:18;14.20;99.90
3492;DHT22;1760;52.480;13.422;2022-09-14T05:31:45;14.20;99.90
3492;DHT22;1760;52.480;13.422;2022-09-14T05:34:12;14.30;99.90
3492;DHT22;1760;52.480;13.422;2022-09-14T05:36:41;14.30;99.90
3492;DHT22;1760;52.480;13.422;2022-09-14T05:39:08;14.40;99.90
3492;DHT22;1760;52.480;13.422;2022-09-14T05:41:35;14.40;99.90
3492;DHT22;1760;52.480;13.422;2022-09-14T05:44:03;14.40;99.90
3492;DHT22;1760;52.480;13.422;2022-09-14T05:46:30;14.40;99.90
3492;DHT22;1760;52.480;13.422;2022-09-14T05:48:57;14.50;99.90
3492;DHT22;1760;52.480;13.422;2022-09-14T05:51:25;14.60;99.90
3492;DHT22;1760;52.480;13.422;2022-09-14T05:53:55;14.60;99.90
3492;DHT22;1760;52.480;13.422;2022-09-14T05:56:24;14.60;99.90
3492;DHT22;1760;52.480;13.422;2022-09-14T05:58:51;14.60;99.90
3492;DHT22;1760;52.480;13.422;2022-09-14T06:01:19;14.70;99.90
3492;DHT22;1760;52.480;13.422;2022-09-14T06:03:47;14.70;99.90
3492;DHT22;1760;52.480;13.422;2022-09-14T06:06:16;14.80;99.90
3492;DHT22;1760;52.480;13.422;2022-09-14T06:08:44;14.90;99.90
3492;DHT22;1760;52.480;13.422;2022-09-14T06:11:13;14.90;99.90
3492;DHT22;1760;52.480;13.422;2022-09-14T06:13:41;15.00;99.90
3492;DHT22;1760;52.480;13.422;2022-09-14T06:16:10;15.00;99.90
3492;DHT22;1760;52.480;13.422;2022-09-14T06:18:38;15.00;99.90
3492;DHT22;1760;52.480;13.422;2022-09-14T06:21:08;15.10;99.90
3492;DHT22;1760;52.480;13.422;2022-09-14T06:23:35;15.10;99.90
3492;DHT22;1760;52.480;13.422;2022-09-14T06:26:03;15.10;99.90
3492;DHT22;1760;52.480;13.422;2022-09-14T06:28:32;15.20;99.90
3492;DHT22;1760;52.480;13.422;2022-09-14T06:31:03;15.20;99.90
3492;DHT22;1760;52.480;13.422;2022-09-14T06:33:32;15.30;99.90
3492;DHT22;1760;52.480;13.422;2022-09-14T06:36:01;15.30;99.90
3492;DHT22;1760;52.480;13.422;2022-09-14T06:38:28;15.30;99.90
3492;DHT22;1760;52.480;13.422;2022-09-14T06:40:57;15.40;99.90
3492;DHT22;1760;52.480;13.422;2022-09-14T06:43:25;15.40;99.90
3492;DHT22;1760;52.480;13.422;2022-09-14T06:45:57;15.60;99.90
3492;DHT22;1760;52.480;13.422;2022-09-14T06:48:25;15.60;99.90
3492;DHT22;1760;52.480;13.422;2022-09-14T06:50:52;15.70;99.90
3492;DHT22;1760;52.480;13.422;2022-09-14T06:53:19;15.90;99.90
3492;DHT22;1760;52.480;13.422;2022-09-14T06:55:46;16.00;99.90
3492;DHT22;1760;52.480;13.422;2022-09-14T06:58:13;16.10;99.90
3492;DHT22;1760;52.480;13.422;2022-09-14T07:00:39;16.10;99.90
3492;DHT22;1760;52.480;13.422;2022-09-14T07:03:08;16.20;99.90
3492;DHT22;1760;52.480;13.422;2022-09-14T07:05:35;16.30;99.90
3492;DHT22;1760;52.480;13.422;2022-09-14T07:08:02;16.40;99.90
3492;DHT22;1760;52.480;13.422;2022-09-14T07:10:28;16.50;99.90
3492;DHT22;1760;52.480;13.422;2022-09-14T07:12:57;16.50;99.90
3492;DHT22;1760;52.480;13.422;2022-09-14T07:15:24;16.60;99.90
3492;DHT22;1760;52.480;13.422;2022-09-14T07:17:51;16.70;99.90
3492;DHT22;1760;52.480;13.422;2022-09-14T07:20:21;16.70;99.90
3492;DHT22;1760;52.480;13.422;2022-09-14T07:22:48;16.80;99.90
3492;DHT22;1760;52.480;13.422;2022-09-14T07:25:15;16.80;99.90
3492;DHT22;1760;52.480;13.422;2022-09-14T07:27:41;16.90;99.90
3492;DHT22;1760;52.480;13.422;2022-09-14T07:30:09;16.90;99.90
3492;DHT22;1760;52.480;13.422;2022-09-14T07:32:35;16.90;99.90
3492;DHT22;1760;52.480;13.422;2022-09-14T07:35:03;17.00;99.90
3492;DHT22;1760;52.480;13.422;2022-09-14T07:37:31;17.10;99.90
3492;DHT22;1760;52.480;13.422;2022-09-14T07:39:57;17.10;99.90
3492;DHT22;1760;52.480;13.422;2022-09-14T07:42:28;17.20;99.90
3492;DHT22;1760;52.480;13.422;2022-09-14T07:44:56;17.20;99.90
3492;DHT22;1760;52.480;13.422;2022-09-14T07:47:23;17.30;99.90
3492;DHT22;1760;52.480;13.422;2022-09-14T07:49:50;17.20;99.90
3492;DHT22;1760;52.480;13.422;2022-09-14T07:52:16;17.20;99.90
3492;DHT22;1760;52.480;13.422;2022-09-14T07:54:45;17.30;99.90
3492;DHT22;1760;52.480;13.422;2022-09-14T07:57:11;17.40;99.90
3492;DHT22;1760;52.480;13.422;2022-09-14T07:59:38;17.60;99.90
3492;DHT22;1760;52.480;13.422;2022-09-14T08:02:06;17.60;99.90
3492;DHT22;1760;52.480;13.422;2022-09-14T08:04:34;17.90;99.90
3492;DHT22;1760;52.480;13.422;2022-09-14T08:07:01;18.00;99.90
3492;DHT22;1760;52.480;13.422;2022-09-14T08:09:28;18.10;99.90
3492;DHT22;1760;52.480;13.422;2022-09-14T08:11:56;18.30;99.90
3492;DHT22;1760;52.480;13.422;2022-09-14T08:14:23;18.50;99.90
3492;DHT22;1760;52.480;13.422;2022-09-14T08:16:50;18.80;99.90
3492;DHT22;1760;52.480;13.422;2022-09-14T08:19:17;19.60;99.90
3492;DHT22;1760;52.480;13.422;2022-09-14T08:21:45;20.40;99.90
3492;DHT22;1760;52.480;13.422;2022-09-14T08:24:14;21.00;99.90
3492;DHT22;1760;52.480;13.422;2022-09-14T08:26:41;21.50;99.90
3492;DHT22;1760;52.480;13.422;2022-09-14T08:29:10;22.10;99.90
3492;DHT22;1760;52.480;13.422;2022-09-14T08:31:38;22.70;99.90
3492;DHT22;1760;52.480;13.422;2022-09-14T08:34:06;23.20;99.90
3492;DHT22;1760;52.480;13.422;2022-09-14T08:36:35;23.60;99.90
3492;DHT22;1760;52.480;13.422;2022-09-14T08:39:02;24.00;99.90
3492;DHT22;1760;52.480;13.422;2022-09-14T08:41:33;24.30;99.90
3492;DHT22;1760;52.480;13.422;2022-09-14T08:44:03;24.50;99.90
3492;DHT22;1760;52.480;13.422;2022-09-14T08:46:35;24.80;99.90
3492;DHT22;1760;52.480;13.422;2022-09-14T08:49:08;25.10;99.90
3492;DHT22;1760;52.480;13.422;2022-09-14T08:51:36;25.50;99.90
3492;DHT22;1760;52.480;13.422;2022-09-14T08:54:03;25.50;98.60
3492;DHT22;1760;52.480;13.422;2022-09-14T08:56:31;25.60;97.50
3492;DHT22;1760;52.480;13.422;2022-09-14T08:59:14;25.50;97.10
3492;DHT22;1760;52.480;13.422;2022-09-14T09:01:51;25.40;95.90
3492;DHT22;1760;52.480;13.422;2022-09-14T09:04:30;24.90;95.50
3492;DHT22;1760;52.480;13.422;2022-09-14T09:07:04;24.40;98.10
3492;DHT22;1760;52.480;13.422;2022-09-14T09:09:39;23.80;98.40
3492;DHT22;1760;52.480;13.422;2022-09-14T09:12:12;23.10;98.70
3492;DHT22;1760;52.480;13.422;2022-09-14T09:14:43;22.40;99.90
3492;DHT22;1760;52.480;13.422;2022-09-14T09:17:15;21.90;99.90
3492;DHT22;1760;52.480;13.422;2022-09-14T09:20:00;21.30;99.90
3492;DHT22;1760;52.480;13.422;2022-09-14T09:22:36;20.90;99.90
3492;DHT22;1760;52.480;13.422;2022-09-14T09:25:06;20.70;99.90
3492;DHT22;1760;52.480;13.422;2022-09-14T09:27:36;20.60;99.90
3492;DHT22;1760;52.480;13.422;2022-09-14T09:30:03;20.40;99.90
3492;DHT22;1760;52.480;13.422;2022-09-14T09:32:34;20.30;99.90
3492;DHT22;1760;52.480;13.422;2022-09-14T09:35:04;20.50;99.90
3492;DHT22;1760;52.480;13.422;2022-09-14T09:37:35;20.60;99.90
3492;DHT22;1760;52.480;13.422;2022-09-14T09:40:12;20.70;99.90
3492;DHT22;1760;52.480;13.422;2022-09-14T09:43:04;20.80;99.90
3492;DHT22;1760;52.480;13.422;2022-09-14T09:45:46;21.00;99.90
3492;DHT22;1760;52.480;13.422;2022-09-14T09:48:15;21.30;99.90
3492;DHT22;1760;52.480;13.422;2022-09-14T09:50:48;21.80;99.90
3492;DHT22;1760;52.480;13.422;2022-09-14T09:53:16;22.30;99.90
3492;DHT22;1760;52.480;13.422;2022-09-14T09:55:46;22.50;99.90
3492;DHT22;1760;52.480;13.422;2022-09-14T09:58:27;22.40;99.90
3492;DHT22;1760;52.480;13.422;2022-09-14T10:00:55;22.10;99.90
3492;DHT22;1760;52.480;13.422;2022-09-14T10:03:31;21.90;99.90
3492;DHT22;1760;52.480;13.422;2022-09-14T10:06:00;21.70;99.90
3492;DHT22;1760;52.480;13.422;2022-09-14T10:08:29;21.30;99.90
3492;DHT22;1760;52.480;13.422;2022-09-14T10:11:00;21.00;99.90
3492;DHT22;1760;52.480;13.422;2022-09-14T10:13:30;21.00;99.90
3492;DHT22;1760;52.480;13.422;2022-09-14T10:16:11;20.90;99.90
3492;DHT22;1760;52.480;13.422;2022-09-14T10:18:43;20.70;99.90
3492;DHT22;1760;52.480;13.422;2022-09-14T10:21:10;20.60;99.90
3492;DHT22;1760;52.480;13.422;2022-09-14T10:23:38;20.50;99.90
3492;DHT22;1760;52.480;13.422;2022-09-14T10:26:25;20.50;99.90
3492;DHT22;1760;52.480;13.422;2022-09-14T10:32:06;20.80;99.90
3492;DHT22;1760;52.480;13.422;2022-09-14T10:34:37;20.90;99.90
3492;DHT22;1760;52.480;13.422;2022-09-14T10:37:19;21.00;99.90
3492;DHT22;1760;52.480;13.422;2022-09-14T10:39:58;21.20;99.90
3492;DHT22;1760;52.480;13.422;2022-09-14T10:42:35;21.40;99.90
3492;DHT22;1760;52.480;13.422;2022-09-14T10:45:12;21.70;99.90
3492;DHT22;1760;52.480;13.422;2022-09-14T10:47:59;22.00;99.90
3492;DHT22;1760;52.480;13.422;2022-09-14T10:50:52;22.20;99.90
3492;DHT22;1760;52.480;13.422;2022-09-14T10:53:31;22.30;99.90
3492;DHT22;1760;52.480;13.422;2022-09-14T10:56:05;22.50;99.90
3492;DHT22;1760;52.480;13.422;2022-09-14T10:59:01;22.80;99.90
3492;DHT22;1760;52.480;13.422;2022-09-14T11:01:57;22.90;99.90
3492;DHT22;1760;52.480;13.422;2022-09-14T11:04:53;23.00;99.90
3492;DHT22;1760;52.480;13.422;2022-09-14T11:07:28;22.90;99.10
3492;DHT22;1760;52.480;13.422;2022-09-14T11:10:04;23.00;98.80
3492;DHT22;1760;52.480;13.422;2022-09-14T11:12:41;22.90;99.90
3492;DHT22;1760;52.480;13.422;2022-09-14T11:15:19;22.90;98.20
3492;DHT22;1760;52.480;13.422;2022-09-14T11:18:01;22.60;97.50
3492;DHT22;1760;52.480;13.422;2022-09-14T11:20:39;22.30;99.90
3492;DHT22;1760;52.480;13.422;2022-09-14T11:23:20;22.20;99.90
3492;DHT22;1760;52.480;13.422;2022-09-14T11:25:51;22.10;99.90
3492;DHT22;1760;52.480;13.422;2022-09-14T11:28:23;21.90;99.90
3492;DHT22;1760;52.480;13.422;2022-09-14T11:30:54;21.80;99.90
3492;DHT22;1760;52.480;13.422;2022-09-14T11:33:28;21.80;99.90
3492;DHT22;1760;52.480;13.422;2022-09-14T11:36:01;21.70;99.90
3492;DHT22;1760;52.480;13.422;2022-09-14T11:38:34;21.50;99.90
3492;DHT22;1760;52.480;13.422;2022-09-14T11:41:09;21.40;99.90
3492;DHT22;1760;52.480;13.422;2022-09-14T11:43:42;21.30;99.90
3492;DHT22;1760;52.480;13.422;2022-09-14T11:46:14;21.30;99.90
3492;DHT22;1760;52.480;13.422;2022-09-14T11:48:51;21.30;99.90
3492;DHT22;1760;52.480;13.422;2022-09-14T11:51:31;21.30;99.90
3492;DHT22;1760;52.480;13.422;2022-09-14T11:54:00;21.20;99.90
3492;DHT22;1760;52.480;13.422;2022-09-14T11:56:28;21.10;99.90
3492;DHT22;1760;52.480;13.422;2022-09-14T11:58:58;21.20;99.90
3492;DHT22;1760;52.480;13.422;2022-09-14T12:01:31;21.30;99.90
3492;DHT22;1760;52.480;13.422;2022-09-14T12:04:17;21.30;99.90
3492;DHT22;1760;52.480;13.422;2022-09-14T12:06:51;21.10;99.90
3492;DHT22;1760;52.480;13.422;2022-09-14T12:09:42;21.00;99.90
3492;DHT22;1760;52.480;13.422;2022-09-14T12:12:37;20.90;99.90
3492;DHT22;1760;52.480;13.422;2022-09-14T12:15:17;20.90;99.90
3492;DHT22;1760;52.480;13.422;2022-09-14T12:17:46;20.80;99.90
3492;DHT22;1760;52.480;13.422;2022-09-14T12:20:35;20.80;99.90
3492;DHT22;1760;52.480;13.422;2022-09-14T12:23:12;20.60;99.90
3492;DHT22;1760;52.480;13.422;2022-09-14T12:25:52;20.60;99.90
3492;DHT22;1760;52.480;13.422;2022-09-14T12:28:42;20.60;99.90
3492;DHT22;1760;52.480;13.422;2022-09-14T12:31:38;20.60;99.90
3492;DHT22;1760;52.480;13.422;2022-09-14T12:34:24;20.60;99.90
3492;DHT22;1760;52.480;13.422;2022-09-14T12:37:27;20.60;99.90
3492;DHT22;1760;52.480;13.422;2022-09-14T12:46:37;20.60;99.90
3492;DHT22;1760;52.480;13.422;2022-09-14T12:49:35;20.70;99.90
3492;DHT22;1760;52.480;13.422;2022-09-14T12:52:22;20.70;99.90
3492;DHT22;1760;52.480;13.422;2022-09-14T12:55:22;20.70;99.90
3492;DHT22;1760;52.480;13.422;2022-09-14T12:58:00;20.60;99.90
3492;DHT22;1760;52.480;13.422;2022-09-14T13:00:31;20.60;99.90
3492;DHT22;1760;52.480;13.422;2022-09-14T13:03:39;20.70;99.90
3492;DHT22;1760;52.480;13.422;2022-09-14T13:06:10;20.80;99.90
3492;DHT22;1760;52.480;13.422;2022-09-14T13:08:37;21.00;99.90
3492;DHT22;1760;52.480;13.422;2022-09-14T13:11:06;21.00;99.90
3492;DHT22;1760;52.480;13.422;2022-09-14T13:13:32;20.90;99.90
3492;DHT22;1760;52.480;13.422;2022-09-14T13:16:01;20.90;99.90
3492;DHT22;1760;52.480;13.422;2022-09-14T13:18:33;21.00;99.90
3492;DHT22;1760;52.480;13.422;2022-09-14T13:21:01;21.00;99.90
3492;DHT22;1760;52.480;13.422;2022-09-14T13:23:30;20.90;99.90
3492;DHT22;1760;52.480;13.422;2022-09-14T13:26:17;20.80;99.90
3492;DHT22;1760;52.480;13.422;2022-09-14T13:28:46;20.80;99.90
3492;DHT22;1760;52.480;13.422;2022-09-14T13:31:18;20.80;99.90
3492;DHT22;1760;52.480;13.422;2022-09-14T13:33:50;20.70;99.90
3492;DHT22;1760;52.480;13.422;2022-09-14T13:36:20;20.70;99.90
3492;DHT22;1760;52.480;13.422;2022-09-14T13:38:48;20.70;99.90
3492;DHT22;1760;52.480;13.422;2022-09-14T13:41:16;20.70;99.90
3492;DHT22;1760;52.480;13.422;2022-09-14T13:43:47;20.60;99.90
3492;DHT22;1760;52.480;13.422;2022-09-14T13:46:15;20.50;99.90
3492;DHT22;1760;52.480;13.422;2022-09-14T13:48:43;20.40;99.90
3492;DHT22;1760;52.480;13.422;2022-09-14T13:51:12;20.30;99.90
3492;DHT22;1760;52.480;13.422;2022-09-14T13:53:43;20.30;99.90
3492;DHT22;1760;52.480;13.422;2022-09-14T13:56:21;20.30;99.90
3492;DHT22;1760;52.480;13.422;2022-09-14T13:59:14;20.10;99.90
3492;DHT22;1760;52.480;13.422;2022-09-14T14:01:45;20.10;99.90
3492;DHT22;1760;52.480;13.422;2022-09-14T14:04:26;20.00;99.90
3492;DHT22;1760;52.480;13.422;2022-09-14T14:07:16;19.80;99.90
3492;DHT22;1760;52.480;13.422;2022-09-14T14:09:46;19.70;99.90
3492;DHT22;1760;52.480;13.422;2022-09-14T14:12:22;19.70;99.90
3492;DHT22;1760;52.480;13.422;2022-09-14T14:14:57;19.60;99.90
3492;DHT22;1760;52.480;13.422;2022-09-14T14:17:31;19.60;99.90
3492;DHT22;1760;52.480;13.422;2022-09-14T14:20:28;19.60;99.90
3492;DHT22;1760;52.480;13.422;2022-09-14T14:22:58;19.60;99.90
3492;DHT22;1760;52.480;13.422;2022-09-14T14:25:29;19.70;99.90
3492;DHT22;1760;52.480;13.422;2022-09-14T14:27:58;19.70;99.90
3492;DHT22;1760;52.480;13.422;2022-09-14T14:30:39;19.70;99.90
3492;DHT22;1760;52.480;13.422;2022-09-14T14:33:11;19.70;99.90
3492;DHT22;1760;52.480;13.422;2022-09-14T14:35:40;19.60;99.90
3492;DHT22;1760;52.480;13.422;2022-09-14T14:38:07;19.60;99.90
3492;DHT22;1760;52.480;13.422;2022-09-14T14:40:34;19.60;99.90
3492;DHT22;1760;52.480;13.422;2022-09-14T14:43:02;19.60;99.90
3492;DHT22;1760;52.480;13.422;2022-09-14T14:45:29;19.50;99.90
3492;DHT22;1760;52.480;13.422;2022-09-14T14:47:58;19.50;99.90
3492;DHT22;1760;52.480;13.422;2022-09-14T14:50:27;19.50;99.90
3492;DHT22;1760;52.480;13.422;2022-09-14T14:52:55;19.40;99.90
3492;DHT22;1760;52.480;13.422;2022-09-14T14:55:25;19.40;99.90
3492;DHT22;1760;52.480;13.422;2022-09-14T14:57:52;19.40;99.90
3492;DHT22;1760;52.480;13.422;2022-09-14T15:00:24;19.40;99.90
3492;DHT22;1760;52.480;13.422;2022-09-14T15:02:50;19.20;99.90
3492;DHT22;1760;52.480;13.422;2022-09-14T15:05:18;19.20;99.90
3492;DHT22;1760;52.480;13.422;2022-09-14T15:07:45;19.10;99.90
3492;DHT22;1760;52.480;13.422;2022-09-14T15:10:15;19.10;99.90
3492;DHT22;1760;52.480;13.422;2022-09-14T15:12:42;19.00;99.90
3492;DHT22;1760;52.480;13.422;2022-09-14T15:15:11;19.00;99.90
3492;DHT22;1760;52.480;13.422;2022-09-14T15:17:38;19.00;99.90
3492;DHT22;1760;52.480;13.422;2022-09-14T15:20:06;19.00;99.90
3492;DHT22;1760;52.480;13.422;2022-09-14T15:22:34;19.00;99.90
3492;DHT22;1760;52.480;13.422;2022-09-14T15:25:01;19.00;99.90
3492;DHT22;1760;52.480;13.422;2022-09-14T15:27:29;19.00;99.90
3492;DHT22;1760;52.480;13.422;2022-09-14T15:29:56;19.00;99.90
3492;DHT22;1760;52.480;13.422;2022-09-14T15:32:36;19.00;99.90
3492;DHT22;1760;52.480;13.422;2022-09-14T15:35:03;19.00;99.90
3492;DHT22;1760;52.480;13.422;2022-09-14T15:37:30;19.00;99.90
3492;DHT22;1760;52.480;13.422;2022-09-14T15:39:57;19.00;99.90
3492;DHT22;1760;52.480;13.422;2022-09-14T15:42:24;19.00;99.90
3492;DHT22;1760;52.480;13.422;2022-09-14T15:44:53;19.00;99.90
3492;DHT22;1760;52.480;13.422;2022-09-14T15:47:19;19.00;99.90
3492;DHT22;1760;52.480;13.422;2022-09-14T15:49:49;19.00;99.90
3492;DHT22;1760;52.480;13.422;2022-09-14T15:52:16;19.00;99.90
3492;DHT22;1760;52.480;13.422;2022-09-14T15:54:43;19.00;99.90
3492;DHT22;1760;52.480;13.422;2022-09-14T15:57:11;19.00;99.90
3492;DHT22;1760;52.480;13.422;2022-09-14T15:59:37;19.00;99.90
3492;DHT22;1760;52.480;13.422;2022-09-14T16:02:06;19.00;99.90
3492;DHT22;1760;52.480;13.422;2022-09-14T16:04:34;19.00;99.90
3492;DHT22;1760;52.480;13.422;2022-09-14T16:07:02;19.00;99.90
3492;DHT22;1760;52.480;13.422;2022-09-14T16:09:34;19.00;99.90
3492;DHT22;1760;52.480;13.422;2022-09-14T16:12:02;19.00;99.90
3492;DHT22;1760;52.480;13.422;2022-09-14T16:14:29;19.00;99.90
3492;DHT22;1760;52.480;13.422;2022-09-14T16:16:55;19.00;99.90
3492;DHT22;1760;52.480;13.422;2022-09-14T16:19:24;19.00;99.90
3492;DHT22;1760;52.480;13.422;2022-09-14T16:21:51;18.90;99.90
3492;DHT22;1760;52.480;13.422;2022-09-14T16:24:18;18.90;99.90